createdAt,value
2018-09-09T00:01:29.516Z,10.81
2018-09-09T00:03:56.681Z,10.90
2018-09-09T00:06:23.981Z,10.42
2018-09-09T00:08:51.099Z,10.58
2018-09-09T00:11:18.712Z,10.56
2018-09-09T00:13:45.819Z,10.21
2018-09-09T00:16:12.937Z,10.00
2018-09-09T00:18:40.227Z,9.73
2018-09-09T00:21:07.543Z,10.33
2018-09-09T00:23:34.681Z,10.54
2018-09-09T00:26:01.778Z,10.63
2018-09-09T00:28:28.954Z,10.39
2018-09-09T00:30:56.082Z,10.43
2018-09-09T00:33:23.401Z,10.33
2018-09-09T00:35:50.575Z,10.35
2018-09-09T00:38:17.720Z,10.43
2018-09-09T00:40:44.910Z,10.24
2018-09-09T00:43:12.021Z,10.29
2018-09-09T00:45:39.267Z,10.18
2018-09-09T00:48:06.583Z,10.34
2018-09-09T00:50:39.543Z,10.34
2018-09-09T00:53:12.511Z,10.34
2018-09-09T00:55:39.722Z,10.36
2018-09-09T00:58:07.076Z,10.30
2018-09-09T01:00:39.884Z,9.95
2018-09-09T01:03:07.119Z,10.29
2018-09-09T01:05:34.224Z,10.51
2018-09-09T01:08:01.383Z,10.48
2018-09-09T01:10:28.572Z,10.54
2018-09-09T01:12:55.737Z,10.44
2018-09-09T01:15:24.312Z,10.17
2018-09-09T01:17:52.260Z,10.45
2018-09-09T01:20:19.567Z,10.43
2018-09-09T01:22:46.641Z,10.56
2018-09-09T01:25:13.924Z,10.69
2018-09-09T01:27:41.107Z,10.56
2018-09-09T01:30:08.442Z,10.58
2018-09-09T01:32:35.612Z,10.50
2018-09-09T01:35:03.137Z,10.41
2018-09-09T01:37:30.240Z,10.40
2018-09-09T01:39:57.429Z,10.52
2018-09-09T01:42:31.290Z,10.44
2018-09-09T01:44:58.532Z,10.44
2018-09-09T01:47:25.693Z,10.36
2018-09-09T01:49:53.203Z,9.66
2018-09-09T01:52:20.507Z,9.88
2018-09-09T01:54:47.665Z,10.04
2018-09-09T01:57:14.797Z,9.96
2018-09-09T01:59:41.966Z,9.51
2018-09-09T02:02:09.060Z,9.68
2018-09-09T02:04:36.233Z,9.92
2018-09-09T02:07:03.412Z,10.22
2018-09-09T02:09:30.540Z,10.19
2018-09-09T02:11:57.705Z,10.27
2018-09-09T02:14:24.860Z,10.40
2018-09-09T02:16:52.037Z,10.46
2018-09-09T02:19:19.439Z,10.45
2018-09-09T02:21:46.548Z,10.34
2018-09-09T02:24:13.764Z,10.24
2018-09-09T02:26:40.917Z,9.97
2018-09-09T02:29:08.097Z,10.25
2018-09-09T02:31:35.300Z,10.40
2018-09-09T02:34:02.396Z,10.29
2018-09-09T02:36:29.545Z,9.82
2018-09-09T02:38:56.781Z,9.96
2018-09-09T02:41:23.972Z,10.24
2018-09-09T02:43:51.279Z,10.38
2018-09-09T02:46:18.592Z,10.28
2018-09-09T02:48:45.705Z,10.29
2018-09-09T02:51:12.905Z,10.32
2018-09-09T02:53:40.061Z,10.47
2018-09-09T02:56:09.112Z,10.31
2018-09-09T02:58:36.265Z,10.33
2018-09-09T03:01:03.430Z,10.38
2018-09-09T03:03:30.563Z,10.24
2018-09-09T03:05:57.823Z,10.21
2018-09-09T03:08:24.946Z,10.25
2018-09-09T03:10:57.953Z,10.22
2018-09-09T03:13:25.121Z,10.21
2018-09-09T03:15:52.268Z,10.19
2018-09-09T03:18:20.340Z,10.27
2018-09-09T03:20:48.891Z,9.90
2018-09-09T03:23:16.052Z,10.19
2018-09-09T03:25:43.276Z,10.14
2018-09-09T03:28:10.511Z,10.23
2018-09-09T03:30:37.614Z,9.46
2018-09-09T03:33:04.928Z,9.41
2018-09-09T03:35:32.253Z,9.76
2018-09-09T03:37:59.413Z,9.86
2018-09-09T03:40:26.513Z,9.92
2018-09-09T03:42:53.718Z,10.00
2018-09-09T03:45:20.868Z,10.06
2018-09-09T03:47:48.205Z,10.00
2018-09-09T03:50:15.329Z,9.96
2018-09-09T03:52:42.504Z,9.87
2018-09-09T03:55:09.775Z,10.00
2018-09-09T03:57:36.861Z,9.66
2018-09-09T04:00:04.380Z,9.76
2018-09-09T04:02:31.740Z,9.46
2018-09-09T04:04:58.921Z,9.65
2018-09-09T04:07:26.063Z,9.72
2018-09-09T04:09:53.263Z,9.84
2018-09-09T04:12:20.340Z,9.77
2018-09-09T04:14:47.769Z,9.83
2018-09-09T04:17:14.929Z,9.93
2018-09-09T04:19:42.035Z,9.85
2018-09-09T04:22:09.281Z,9.96
2018-09-09T04:24:36.413Z,9.94
2018-09-09T04:27:03.612Z,10.01
2018-09-09T04:29:30.725Z,9.96
2018-09-09T04:31:57.832Z,9.86
2018-09-09T04:34:25.006Z,8.85
2018-09-09T04:36:52.184Z,9.72
2018-09-09T04:39:19.324Z,9.72
2018-09-09T04:41:46.517Z,9.80
2018-09-09T04:44:13.667Z,9.90
2018-09-09T04:46:40.828Z,9.74
2018-09-09T04:49:08.848Z,9.32
2018-09-09T04:51:36.073Z,9.74
2018-09-09T04:54:03.225Z,9.50
2018-09-09T04:56:30.681Z,9.55
2018-09-09T04:58:57.767Z,9.77
2018-09-09T05:01:24.912Z,9.90
2018-09-09T05:03:52.078Z,9.91
2018-09-09T05:06:19.248Z,9.61
2018-09-09T05:08:46.443Z,10.05
2018-09-09T05:11:13.917Z,9.73
2018-09-09T05:13:41.041Z,9.75
2018-09-09T05:16:08.234Z,10.00
2018-09-09T05:18:35.332Z,10.10
2018-09-09T05:21:02.512Z,10.10
2018-09-09T05:23:29.707Z,10.05
2018-09-09T05:25:56.871Z,9.96
2018-09-09T05:28:24.080Z,9.87
2018-09-09T05:30:51.240Z,9.84
2018-09-09T05:33:18.361Z,9.52
2018-09-09T05:35:45.566Z,9.69
2018-09-09T05:38:12.717Z,9.78
2018-09-09T05:40:39.884Z,9.90
2018-09-09T05:43:07.097Z,9.94
2018-09-09T05:45:34.253Z,9.92
2018-09-09T05:48:01.595Z,9.69
2018-09-09T05:50:28.818Z,9.85
2018-09-09T05:53:02.724Z,9.90
2018-09-09T05:55:29.949Z,9.95
2018-09-09T05:57:57.065Z,9.84
2018-09-09T06:00:24.226Z,10.12
2018-09-09T06:02:51.468Z,10.37
2018-09-09T06:05:18.633Z,10.50
2018-09-09T06:07:45.920Z,10.54
2018-09-09T06:10:13.029Z,10.64
2018-09-09T06:12:40.270Z,10.67
2018-09-09T06:15:07.445Z,10.69
2018-09-09T06:17:34.581Z,10.78
2018-09-09T06:20:01.839Z,10.92
2018-09-09T06:22:29.033Z,11.11
2018-09-09T06:24:56.659Z,11.25
2018-09-09T06:27:23.857Z,11.40
2018-09-09T06:29:51.096Z,11.55
2018-09-09T06:32:18.230Z,11.54
2018-09-09T06:34:45.401Z,11.70
2018-09-09T06:37:12.540Z,11.73
2018-09-09T06:39:39.718Z,11.83
2018-09-09T06:42:06.867Z,12.02
2018-09-09T06:44:34.048Z,12.20
2018-09-09T06:47:01.168Z,12.41
2018-09-09T06:49:28.324Z,12.68
2018-09-09T06:51:55.509Z,12.95
2018-09-09T06:54:22.616Z,12.99
2018-09-09T06:56:49.896Z,13.20
2018-09-09T06:59:17.078Z,13.14
2018-09-09T07:01:44.220Z,13.13
2018-09-09T07:04:11.368Z,13.01
2018-09-09T07:06:38.647Z,13.07
2018-09-09T07:09:07.022Z,13.33
2018-09-09T07:11:34.363Z,13.35
2018-09-09T07:14:01.421Z,13.70
2018-09-09T07:16:28.624Z,13.82
2018-09-09T07:18:55.931Z,13.80
2018-09-09T07:21:23.030Z,14.09
2018-09-09T07:23:50.202Z,14.40
2018-09-09T07:26:17.511Z,14.65
2018-09-09T07:28:44.711Z,14.75
2018-09-09T07:31:11.964Z,14.84
2018-09-09T07:33:39.201Z,15.03
2018-09-09T07:36:06.368Z,15.33
2018-09-09T07:38:33.536Z,15.58
2018-09-09T07:41:00.664Z,15.71
2018-09-09T07:43:27.812Z,15.71
2018-09-09T07:45:55.143Z,15.79
2018-09-09T07:48:22.329Z,16.12
2018-09-09T07:50:49.575Z,16.07
2018-09-09T07:53:16.682Z,16.09
2018-09-09T07:55:43.808Z,16.23
2018-09-09T07:58:11.025Z,16.23
2018-09-09T08:00:38.244Z,16.50
2018-09-09T08:03:05.498Z,16.67
2018-09-09T08:05:33.121Z,16.61
2018-09-09T08:08:00.265Z,17.00
2018-09-09T08:10:27.418Z,17.12
2018-09-09T08:12:54.743Z,17.27
2018-09-09T08:15:22.562Z,17.31
2018-09-09T08:17:49.748Z,17.70
2018-09-09T08:20:17.073Z,17.76
2018-09-09T08:22:44.232Z,17.99
2018-09-09T08:25:11.356Z,17.99
2018-09-09T08:27:38.696Z,18.07
2018-09-09T08:30:05.929Z,18.07
2018-09-09T08:32:33.165Z,18.13
2018-09-09T08:35:00.412Z,18.41
2018-09-09T08:37:27.687Z,18.28
2018-09-09T08:39:55.013Z,18.36
2018-09-09T08:42:22.292Z,18.42
2018-09-09T08:44:49.462Z,18.22
2018-09-09T08:47:16.677Z,18.02
2018-09-09T08:49:43.773Z,18.48
2018-09-09T08:52:10.949Z,18.73
2018-09-09T08:54:38.181Z,18.87
2018-09-09T08:57:05.385Z,19.16
2018-09-09T08:59:32.493Z,19.22
2018-09-09T09:01:59.670Z,19.35
2018-09-09T09:04:26.825Z,19.38
2018-09-09T09:06:54.589Z,19.55
2018-09-09T09:09:21.868Z,19.58
2018-09-09T09:11:49.065Z,19.59
2018-09-09T09:14:16.241Z,19.96
2018-09-09T09:16:43.437Z,20.04
2018-09-09T09:19:10.553Z,20.22
2018-09-09T09:21:37.773Z,20.10
2018-09-09T09:24:04.953Z,20.36
2018-09-09T09:26:32.096Z,20.37
2018-09-09T09:28:59.420Z,20.42
2018-09-09T09:31:26.622Z,20.37
2018-09-09T09:33:53.913Z,20.44
2018-09-09T09:36:21.218Z,20.73
2018-09-09T09:38:48.406Z,20.89
2018-09-09T09:41:15.625Z,21.14
2018-09-09T09:43:42.923Z,21.14
2018-09-09T09:46:10.077Z,21.09
2018-09-09T09:48:37.395Z,21.13
2018-09-09T09:51:04.565Z,21.06
2018-09-09T09:53:32.467Z,21.18
2018-09-09T09:55:59.580Z,21.32
2018-09-09T09:58:26.760Z,21.39
2018-09-09T10:01:00.955Z,21.47
2018-09-09T10:03:28.161Z,21.49
2018-09-09T10:05:55.301Z,21.60
2018-09-09T10:08:22.446Z,21.65
2018-09-09T10:10:50.365Z,21.38
2018-09-09T10:13:17.534Z,21.19
2018-09-09T10:15:44.734Z,21.05
2018-09-09T10:18:12.033Z,21.12
2018-09-09T10:20:39.184Z,21.14
2018-09-09T10:23:06.514Z,21.21
2018-09-09T10:25:33.798Z,21.30
2018-09-09T10:28:00.952Z,21.53
2018-09-09T10:30:28.197Z,21.42
2018-09-09T10:32:56.104Z,21.57
2018-09-09T10:35:23.760Z,21.80
2018-09-09T10:37:51.036Z,22.01
2018-09-09T10:40:18.394Z,21.92
2018-09-09T10:42:45.569Z,21.93
2018-09-09T10:45:12.705Z,21.98
2018-09-09T10:47:39.909Z,21.91
2018-09-09T10:50:07.136Z,21.75
2018-09-09T10:52:34.394Z,21.57
2018-09-09T10:55:01.615Z,21.56
2018-09-09T10:57:28.832Z,21.90
2018-09-09T10:59:56.045Z,21.91
2018-09-09T11:02:23.289Z,22.43
2018-09-09T11:04:50.540Z,22.58
2018-09-09T11:07:18.049Z,22.54
2018-09-09T11:09:45.142Z,22.63
2018-09-09T11:12:12.244Z,22.52
2018-09-09T11:14:39.400Z,22.50
2018-09-09T11:17:06.597Z,22.34
2018-09-09T11:19:33.768Z,22.50
2018-09-09T11:22:00.946Z,22.36
2018-09-09T11:24:28.241Z,22.29
2018-09-09T11:26:55.548Z,22.06
2018-09-09T11:29:22.729Z,22.42
2018-09-09T11:31:49.904Z,22.37
2018-09-09T11:34:17.157Z,22.40
2018-09-09T11:36:44.366Z,22.56
2018-09-09T11:39:11.473Z,22.51
2018-09-09T11:41:39.405Z,22.67
2018-09-09T11:44:06.709Z,23.11
2018-09-09T11:46:34.005Z,23.09
2018-09-09T11:49:01.869Z,23.39
2018-09-09T11:51:29.028Z,24.01
2018-09-09T11:53:56.549Z,24.31
2018-09-09T11:56:24.622Z,24.50
2018-09-09T11:58:51.848Z,24.86
2018-09-09T12:01:19.035Z,24.50
2018-09-09T12:03:46.262Z,23.90
2018-09-09T12:06:13.391Z,24.02
2018-09-09T12:08:40.631Z,24.63
2018-09-09T12:11:07.885Z,25.00
2018-09-09T12:13:35.082Z,25.11
2018-09-09T12:16:02.306Z,24.91
2018-09-09T12:18:29.557Z,25.27
2018-09-09T12:20:56.745Z,25.47
2018-09-09T12:23:24.179Z,25.83
2018-09-09T12:25:51.333Z,25.57
2018-09-09T12:28:18.553Z,25.63
2018-09-09T12:30:45.770Z,25.88
2018-09-09T12:33:12.945Z,26.20
2018-09-09T12:35:40.147Z,25.69
2018-09-09T12:38:07.455Z,25.41
2018-09-09T12:40:34.644Z,25.52
2018-09-09T12:43:07.718Z,25.31
2018-09-09T12:45:40.652Z,25.37
2018-09-09T12:48:13.650Z,24.85
2018-09-09T12:50:40.808Z,24.74
2018-09-09T12:53:08.122Z,24.84
2018-09-09T12:55:35.291Z,24.98
2018-09-09T12:58:02.470Z,24.87
2018-09-09T13:00:29.732Z,24.63
2018-09-09T13:02:56.846Z,24.78
2018-09-09T13:05:24.415Z,25.31
2018-09-09T13:07:51.624Z,25.52
2018-09-09T13:10:18.827Z,25.31
2018-09-09T13:12:52.950Z,25.52
2018-09-09T13:15:20.208Z,25.24
2018-09-09T13:17:47.381Z,25.10
2018-09-09T13:20:14.637Z,25.02
2018-09-09T13:22:41.872Z,24.71
2018-09-09T13:25:09.028Z,24.54
2018-09-09T13:27:36.356Z,24.51
2018-09-09T13:30:04.166Z,24.54
2018-09-09T13:32:31.498Z,24.63
2018-09-09T13:34:58.808Z,24.65
2018-09-09T13:37:26.042Z,24.61
2018-09-09T13:39:53.262Z,24.53
2018-09-09T13:42:20.689Z,24.50
2018-09-09T13:44:47.877Z,24.32
2018-09-09T13:47:15.163Z,24.45
2018-09-09T13:49:42.558Z,24.36
2018-09-09T13:52:09.771Z,24.17
2018-09-09T13:54:37.009Z,24.15
2018-09-09T13:57:04.246Z,24.06
2018-09-09T13:59:31.490Z,24.19
2018-09-09T14:01:58.918Z,24.05
2018-09-09T14:04:26.124Z,24.28
2018-09-09T14:06:53.426Z,24.16
2018-09-09T14:09:20.672Z,24.19
2018-09-09T14:11:47.878Z,24.14
2018-09-09T14:14:15.154Z,24.20
2018-09-09T14:16:42.490Z,24.22
2018-09-09T14:19:09.690Z,24.20
2018-09-09T14:21:36.969Z,24.03
2018-09-09T14:24:04.335Z,24.00
2018-09-09T14:26:31.572Z,23.94
2018-09-09T14:28:58.833Z,24.04
2018-09-09T14:31:26.106Z,24.26
2018-09-09T14:33:53.472Z,24.55
2018-09-09T14:36:20.739Z,24.70
2018-09-09T14:38:48.010Z,24.56
2018-09-09T14:41:15.222Z,24.44
2018-09-09T14:43:42.543Z,24.13
2018-09-09T14:46:09.979Z,23.78
2018-09-09T14:48:37.017Z,24.59
2018-09-09T14:51:04.444Z,25.54
2018-09-09T14:53:31.693Z,26.12
2018-09-09T14:55:58.848Z,26.27
2018-09-09T14:58:26.258Z,25.57
2018-09-09T15:00:53.410Z,26.55
2018-09-09T15:03:20.992Z,26.63
2018-09-09T15:05:48.296Z,26.33
2018-09-09T15:08:15.490Z,27.03
2018-09-09T15:10:42.710Z,27.27
2018-09-09T15:13:09.921Z,27.41
2018-09-09T15:15:37.077Z,26.57
2018-09-09T15:18:04.361Z,26.48
2018-09-09T15:20:31.520Z,26.23
2018-09-09T15:22:58.761Z,26.51
2018-09-09T15:25:25.975Z,26.70
2018-09-09T15:27:53.310Z,26.77
2018-09-09T15:30:20.576Z,26.72
2018-09-09T15:32:47.803Z,26.76
2018-09-09T15:35:15.029Z,27.18
2018-09-09T15:37:42.311Z,27.84
2018-09-09T15:40:09.673Z,28.24
2018-09-09T15:42:36.866Z,28.18
2018-09-09T15:45:05.415Z,27.39
2018-09-09T15:47:33.241Z,26.77
2018-09-09T15:50:00.501Z,26.09
2018-09-09T15:52:27.678Z,27.11
2018-09-09T15:54:55.002Z,27.24
2018-09-09T15:57:23.035Z,25.78
2018-09-09T15:59:50.227Z,25.58
2018-09-09T16:02:17.614Z,24.78
2018-09-09T16:04:44.789Z,24.44
2018-09-09T16:07:12.724Z,23.97
2018-09-09T16:09:40.009Z,23.62
2018-09-09T16:12:08.078Z,23.55
2018-09-09T16:14:35.293Z,23.20
2018-09-09T16:17:02.619Z,22.80
2018-09-09T16:19:29.861Z,22.82
2018-09-09T16:21:57.246Z,22.93
2018-09-09T16:24:24.574Z,22.57
2018-09-09T16:26:51.884Z,22.56
2018-09-09T16:29:19.092Z,22.41
2018-09-09T16:31:46.430Z,22.31
2018-09-09T16:34:13.794Z,22.33
2018-09-09T16:36:41.185Z,22.30
2018-09-09T16:39:08.623Z,22.31
2018-09-09T16:41:35.898Z,22.45
2018-09-09T16:44:03.278Z,22.33
2018-09-09T16:46:31.635Z,22.35
2018-09-09T16:48:58.896Z,22.30
2018-09-09T16:51:26.136Z,22.20
2018-09-09T16:53:53.450Z,22.23
2018-09-09T16:56:20.653Z,22.24
2018-09-09T16:58:47.909Z,22.34
2018-09-09T17:01:15.203Z,22.17
2018-09-09T17:03:43.032Z,22.11
2018-09-09T17:06:10.315Z,21.92
2018-09-09T17:08:38.569Z,21.73
2018-09-09T17:11:06.198Z,21.72
2018-09-09T17:13:33.569Z,21.61
2018-09-09T17:16:00.822Z,21.41
2018-09-09T17:18:28.061Z,21.21
2018-09-09T17:20:55.318Z,20.93
2018-09-09T17:23:22.578Z,20.76
2018-09-09T17:25:49.777Z,20.83
2018-09-09T17:28:17.058Z,20.81
2018-09-09T17:30:44.462Z,20.88
2018-09-09T17:33:11.708Z,20.94
2018-09-09T17:35:38.894Z,20.96
2018-09-09T17:38:06.891Z,21.18
2018-09-09T17:40:34.080Z,21.30
2018-09-09T17:43:01.751Z,20.90
2018-09-09T17:45:29.078Z,20.79
2018-09-09T17:47:56.343Z,20.68
2018-09-09T17:50:23.655Z,20.33
2018-09-09T17:52:51.072Z,20.08
2018-09-09T17:55:18.326Z,19.74
2018-09-09T17:57:45.612Z,19.41
2018-09-09T18:00:13.375Z,19.07
2018-09-09T18:02:40.574Z,19.00
2018-09-09T18:05:08.373Z,18.94
2018-09-09T18:07:35.672Z,19.09
2018-09-09T18:10:03.839Z,18.82
2018-09-09T18:12:31.082Z,18.59
2018-09-09T18:14:58.588Z,18.39
2018-09-09T18:17:25.824Z,18.58
2018-09-09T18:19:52.968Z,18.56
2018-09-09T18:22:20.853Z,18.44
2018-09-09T18:24:49.262Z,18.02
2018-09-09T18:27:16.510Z,18.28
2018-09-09T18:29:43.828Z,18.41
2018-09-09T18:32:11.149Z,18.31
2018-09-09T18:34:38.405Z,18.38
2018-09-09T18:37:05.824Z,17.87
2018-09-09T18:39:33.394Z,17.97
2018-09-09T18:42:00.665Z,18.15
2018-09-09T18:44:27.887Z,18.14
2018-09-09T18:46:55.136Z,17.83
2018-09-09T18:49:22.390Z,17.86
2018-09-09T18:51:49.752Z,17.82
2018-09-09T18:54:17.065Z,17.60
2018-09-09T18:56:44.273Z,17.61
2018-09-09T18:59:11.599Z,17.64
2018-09-09T19:01:38.856Z,17.26
2018-09-09T19:04:06.221Z,16.65
2018-09-09T19:06:33.525Z,16.76
2018-09-09T19:09:00.941Z,16.69
2018-09-09T19:11:28.251Z,16.86
2018-09-09T19:13:55.719Z,17.02
2018-09-09T19:16:23.002Z,17.02
2018-09-09T19:18:50.259Z,16.75
2018-09-09T19:21:17.665Z,16.91
2018-09-09T19:23:44.845Z,16.98
2018-09-09T19:26:12.083Z,17.06
2018-09-09T19:28:39.330Z,17.10
2018-09-09T19:31:07.447Z,16.99
2018-09-09T19:33:34.775Z,17.03
2018-09-09T19:36:02.130Z,16.96
2018-09-09T19:38:29.430Z,17.04
2018-09-09T19:40:56.714Z,16.98
2018-09-09T19:43:24.047Z,16.50
2018-09-09T19:45:51.887Z,16.35
2018-09-09T19:48:19.520Z,16.70
2018-09-09T19:50:46.881Z,16.67
2018-09-09T19:53:15.301Z,16.56
2018-09-09T19:55:42.560Z,16.48
2018-09-09T19:58:09.837Z,16.22
2018-09-09T20:00:37.690Z,15.82
2018-09-09T20:03:04.937Z,15.54
2018-09-09T20:05:32.497Z,15.62
2018-09-09T20:07:59.720Z,16.02
2018-09-09T20:10:26.885Z,16.03
2018-09-09T20:12:54.598Z,16.05
2018-09-09T20:15:21.936Z,15.95
2018-09-09T20:17:50.116Z,15.71
2018-09-09T20:20:17.343Z,15.93
2018-09-09T20:22:44.764Z,15.85
2018-09-09T20:25:12.026Z,15.75
2018-09-09T20:27:40.809Z,15.56
2018-09-09T20:30:08.171Z,15.20
2018-09-09T20:32:35.417Z,15.24
2018-09-09T20:35:02.864Z,15.21
2018-09-09T20:37:30.144Z,15.08
2018-09-09T20:39:57.348Z,15.42
2018-09-09T20:42:24.563Z,15.51
2018-09-09T20:44:51.872Z,15.61
2018-09-09T20:47:19.167Z,15.55
2018-09-09T20:49:46.483Z,15.52
2018-09-09T20:52:13.987Z,15.60
2018-09-09T20:54:41.147Z,15.69
2018-09-09T20:57:08.456Z,15.38
2018-09-09T20:59:35.696Z,15.25
2018-09-09T21:02:02.938Z,14.94
2018-09-09T21:04:30.187Z,15.02
2018-09-09T21:06:57.397Z,15.00
2018-09-09T21:09:24.595Z,14.65
2018-09-09T21:11:51.889Z,14.83
2018-09-09T21:14:19.159Z,14.98
2018-09-09T21:16:46.518Z,15.14
2018-09-09T21:19:13.761Z,14.99
2018-09-09T21:21:40.946Z,14.90
2018-09-09T21:24:08.343Z,14.61
2018-09-09T21:26:36.076Z,14.21
2018-09-09T21:29:03.254Z,14.33
2018-09-09T21:31:30.649Z,14.45
2018-09-09T21:33:57.908Z,14.61
2018-09-09T21:36:25.109Z,14.60
2018-09-09T21:38:52.352Z,14.65
2018-09-09T21:41:19.530Z,14.54
2018-09-09T21:43:46.689Z,14.41
2018-09-09T21:46:14.017Z,13.78
2018-09-09T21:48:41.220Z,13.99
2018-09-09T21:51:08.324Z,14.25
2018-09-09T21:53:35.677Z,14.23
2018-09-09T21:56:02.854Z,14.38
2018-09-09T21:58:30.132Z,13.90
2018-09-09T22:01:03.017Z,13.65
2018-09-09T22:03:30.771Z,13.34
2018-09-09T22:05:57.986Z,13.72
2018-09-09T22:08:26.173Z,13.90
2018-09-09T22:10:53.325Z,13.97
2018-09-09T22:13:20.572Z,13.96
2018-09-09T22:15:47.747Z,13.49
2018-09-09T22:18:14.965Z,13.17
2018-09-09T22:20:42.381Z,13.51
2018-09-09T22:23:09.561Z,13.57
2018-09-09T22:25:37.137Z,13.68
2018-09-09T22:28:04.718Z,13.82
2018-09-09T22:30:31.937Z,14.01
2018-09-09T22:32:59.328Z,13.89
2018-09-09T22:35:26.747Z,13.93
2018-09-09T22:37:53.928Z,13.77
2018-09-09T22:40:21.185Z,13.64
2018-09-09T22:42:48.329Z,13.22
2018-09-09T22:45:15.492Z,13.12
2018-09-09T22:47:42.920Z,13.09
2018-09-09T22:50:10.788Z,12.99
2018-09-09T22:52:37.935Z,13.03
2018-09-09T22:55:05.192Z,13.23
2018-09-09T22:57:32.678Z,13.02
2018-09-09T22:59:59.860Z,12.95
2018-09-09T23:02:27.173Z,13.06
2018-09-09T23:04:54.365Z,13.14
2018-09-09T23:07:21.567Z,13.10
2018-09-09T23:09:48.766Z,13.13
2018-09-09T23:12:15.935Z,12.55
2018-09-09T23:14:43.303Z,12.79
2018-09-09T23:17:10.564Z,12.90
2018-09-09T23:19:37.700Z,13.07
2018-09-09T23:22:04.892Z,12.83
2018-09-09T23:24:32.045Z,12.44
2018-09-09T23:26:59.189Z,12.27
2018-09-09T23:29:26.416Z,12.49
2018-09-09T23:31:53.666Z,11.98
2018-09-09T23:34:20.813Z,12.06
2018-09-09T23:36:48.128Z,12.39
2018-09-09T23:39:15.293Z,12.69
2018-09-09T23:41:42.537Z,12.79
2018-09-09T23:44:09.708Z,12.73
2018-09-09T23:46:37.622Z,12.77
2018-09-09T23:49:04.787Z,12.27
2018-09-09T23:51:32.017Z,12.14
2018-09-09T23:53:59.227Z,12.22
2018-09-09T23:56:26.428Z,12.01
2018-09-09T23:58:53.627Z,11.70
